Time;durP1;ratioP1;P1;durP2;ratioP2;P2;SDS_P1;SDS_P2;PMS_P1;PMS_P2;Temp;Humidity;BMP_temperature;BMP_pressure;BME280_temperature;BME280_humidity;BME280_pressure;Samples;Min_cycle;Max_cycle;Signal;HPM_P1;HPM_P2
2022/08/11 00:01:05;;;;;;;;;;;;;;;17.11;90.42;95367.22;5077747;28;1456;-48
2022/08/11 00:03:32;;;;;;;;;;;;;;;17.13;90.57;95378.69;5095758;28;1878;-48
2022/08/11 00:05:58;;;;;;;;;;;;;;;17.09;90.45;95378.25;5077537;28;1105;-50
2022/08/11 00:08:26;;;;;;;;;;;;;;;16.97;90.08;95377.94;5067958;28;3280;-48
2022/08/11 00:10:57;;;;;;;;;;;;;;;16.96;90.77;95368.19;5057506;28;1637;-48
2022/08/11 00:13:31;;;;;;;;;;;;;;;17.01;90.06;95375.69;5075016;28;1251;-48
2022/08/11 00:15:57;;;;;;;;;;;;;;;17.03;90.74;95373.63;5057473;28;1979;-49
2022/08/11 00:18:24;;;;;;;;;;;;;;;17.22;89.86;95369.41;5075299;28;1053;-49
2022/08/11 00:20:50;;;;;;;;;;;;;;;17.28;90.08;95363.22;5057148;28;1543;-49
2022/08/11 00:23:18;;;;;;;;;;;;;;;17.17;89.48;95377.28;5075014;28;1009;-49
2022/08/11 00:25:50;;;;;;;;;;;;;;;16.86;90.46;95370.38;5057037;28;1060;-48
2022/08/11 00:28:24;;;;;;;;;;;;;;;17.05;90.38;95366.16;5074978;28;1116;-48
2022/08/11 00:30:51;;;;;;;;;;;;;;;17.09;91.43;95370.16;5074918;28;937;-49
2022/08/11 00:33:19;;;;;;;;;;;;;;;17.04;90.59;95382.59;5057279;28;1115;-49
2022/08/11 00:35:46;;;;;;;;;;;;;;;17.19;91.16;95383.31;5056823;28;2553;-49
2022/08/11 00:38:13;;;;;;;;;;;;;;;17.18;91.11;95376.22;5056728;28;1914;-49
2022/08/11 00:41:12;;;;;;;;;;;;;;;17.21;90.13;95373.16;5074506;28;1034;-49
2022/08/11 00:43:38;;;;;;;;;;;;;;;17.23;90.73;95376.47;5026009;28;1171;-48
2022/08/11 00:46:15;;;;;;;;;;;;;;;17.39;91.24;95372.63;5094794;28;1064;-48
2022/08/11 00:48:47;;;;;;;;;;;;;;;17.41;92.17;95375.13;5076560;28;1045;-49
2022/08/11 00:51:20;;;;;;;;;;;;;;;17.37;91.71;95366.59;5094785;28;974;-48
2022/08/11 00:54:04;;;;;;;;;;;;;;;17.42;92.15;95357.91;5094578;28;1029;-49
2022/08/11 00:56:45;;;;;;;;;;;;;;;17.48;91.02;95362.50;5094561;28;1997;-49
2022/08/11 00:59:21;;;;;;;;;;;;;;;17.42;91.25;95366.00;5094397;28;966;-49
2022/08/11 01:01:55;;;;;;;;;;;;;;;17.46;90.31;95365.41;5094541;28;1048;-48
2022/08/11 01:04:41;;;;;;;;;;;;;;;17.43;90.74;95362.25;5076650;28;1100;-49
2022/08/11 01:07:15;;;;;;;;;;;;;;;17.31;92.16;95372.78;5094380;28;1119;-49
2022/08/11 01:09:51;;;;;;;;;;;;;;;17.29;92.40;95373.00;5076596;28;1457;-48
2022/08/11 01:12:20;;;;;;;;;;;;;;;17.41;92.72;95369.72;5094461;28;965;-49
2022/08/11 01:14:52;;;;;;;;;;;;;;;17.40;92.46;95368.09;5094370;28;1223;-49
2022/08/11 01:17:37;;;;;;;;;;;;;;;17.32;92.80;95369.91;5094164;28;1906;-49
2022/08/11 01:20:06;;;;;;;;;;;;;;;17.22;92.50;95365.88;5094070;28;1574;-49
2022/08/11 01:22:43;;;;;;;;;;;;;;;17.12;93.42;95369.75;5078567;28;3032;-49
2022/08/11 01:25:25;;;;;;;;;;;;;;;17.27;92.46;95358.00;5056362;28;1509;-48
2022/08/11 01:28:10;;;;;;;;;;;;;;;17.44;91.95;95358.53;5073741;28;1115;-49
2022/08/11 01:30:46;;;;;;;;;;;;;;;17.43;92.79;95357.69;5056147;28;977;-49
2022/08/11 01:33:24;;;;;;;;;;;;;;;17.51;91.79;95354.84;5073915;28;1029;-48
2022/08/11 01:36:16;;;;;;;;;;;;;;;17.60;91.07;95352.78;5073765;28;1004;-48
2022/08/11 01:38:45;;;;;;;;;;;;;;;17.44;91.80;95353.13;5043142;28;1701;-49
2022/08/11 01:41:23;;;;;;;;;;;;;;;17.35;92.34;95347.03;5073420;28;1013;-48
2022/08/11 01:46:43;;;;;;;;;;;;;;;17.22;93.34;95350.47;5093780;28;1033;-47
2022/08/11 01:49:12;;;;;;;;;;;;;;;17.36;93.41;95337.91;5083855;28;2927;-48
2022/08/11 01:51:58;;;;;;;;;;;;;;;17.41;93.22;95348.94;5073420;28;1033;-49
2022/08/11 01:54:27;;;;;;;;;;;;;;;17.37;93.30;95344.97;5073671;28;992;-49
2022/08/11 01:57:15;;;;;;;;;;;;;;;17.26;93.83;95343.66;5073439;28;1959;-48
2022/08/11 01:59:48;;;;;;;;;;;;;;;17.03;93.16;95335.81;5055863;28;1592;-48
2022/08/11 02:02:52;;;;;;;;;;;;;;;17.04;93.92;95344.78;5072738;28;1018;-49
2022/08/11 02:05:24;;;;;;;;;;;;;;;17.04;94.47;95350.16;5073380;28;1095;-49
2022/08/11 02:08:13;;;;;;;;;;;;;;;17.11;93.99;95351.03;5073314;28;1041;-49
2022/08/11 02:13:46;;;;;;;;;;;;;;;17.32;93.63;95348.28;5073111;28;1362;-49
2022/08/11 02:16:16;;;;;;;;;;;;;;;17.35;93.34;95352.44;5085736;28;3034;-49
2022/08/11 02:24:33;;;;;;;;;;;;;;;17.20;92.56;95349.03;5093556;28;1023;-49
2022/08/11 02:27:03;;;;;;;;;;;;;;;17.22;92.99;95345.06;5093201;28;1120;-49
2022/08/11 02:29:40;;;;;;;;;;;;;;;17.18;92.74;95341.09;5093393;28;1091;-48
2022/08/11 02:35:19;;;;;;;;;;;;;;;16.92;91.52;95342.59;5093381;28;1020;-49
2022/08/11 02:37:50;;;;;;;;;;;;;;;16.93;92.73;95341.56;5093414;28;1987;-49
2022/08/11 02:40:19;;;;;;;;;;;;;;;16.90;92.92;95336.56;5093466;28;1025;-49
2022/08/11 02:42:45;;;;;;;;;;;;;;;16.96;92.94;95338.47;5093233;28;994;-49
2022/08/11 02:45:30;;;;;;;;;;;;;;;17.03;92.15;95338.50;5074361;28;1634;-49
2022/08/11 02:51:02;;;;;;;;;;;;;;;16.88;92.71;95335.91;5042346;28;1287;-49
2022/08/11 02:53:36;;;;;;;;;;;;;;;16.78;92.56;95341.59;5072921;28;974;-49
2022/08/11 02:56:10;;;;;;;;;;;;;;;16.70;92.32;95349.03;5072877;28;1901;-49
2022/08/11 02:58:39;;;;;;;;;;;;;;;16.58;92.88;95346.84;5072761;28;957;-49
2022/08/11 03:01:10;;;;;;;;;;;;;;;16.75;92.14;95351.97;5073081;28;1043;-49
2022/08/11 03:03:43;;;;;;;;;;;;;;;16.70;91.76;95351.72;5072741;28;1105;-49
2022/08/11 03:06:29;;;;;;;;;;;;;;;16.55;91.90;95347.22;5072897;28;1099;-49
2022/08/11 03:09:18;;;;;;;;;;;;;;;16.62;91.85;95341.91;5072797;28;1004;-49
2022/08/11 03:18:11;;;;;;;;;;;;;;;16.54;90.94;95356.38;5076178;28;1979;-49
2022/08/11 03:20:43;;;;;;;;;;;;;;;16.41;91.70;95350.84;5058949;28;1813;-49
2022/08/11 03:23:16;;;;;;;;;;;;;;;16.36;91.49;95342.47;5076133;28;1053;-49
2022/08/11 03:25:45;;;;;;;;;;;;;;;16.25;91.78;95351.91;5076296;28;970;-49
2022/08/11 03:28:20;;;;;;;;;;;;;;;16.26;91.93;95352.72;5076023;28;1017;-49
2022/08/11 03:31:05;;;;;;;;;;;;;;;16.33;92.55;95342.84;5076168;28;1076;-49
2022/08/11 03:36:29;;;;;;;;;;;;;;;16.30;92.91;95348.66;5075942;28;1996;-49
2022/08/11 03:39:07;;;;;;;;;;;;;;;16.25;92.90;95353.78;5076139;28;900;-49
2022/08/11 03:41:43;;;;;;;;;;;;;;;16.09;92.90;95358.38;5075938;28;1041;-49
2022/08/11 03:44:09;;;;;;;;;;;;;;;16.13;92.83;95348.88;5086032;28;1189;-49
2022/08/11 03:46:44;;;;;;;;;;;;;;;16.23;93.01;95356.66;5096110;28;1013;-48
2022/08/11 03:49:22;;;;;;;;;;;;;;;16.31;92.07;95347.59;5078157;28;1462;-48
2022/08/11 03:51:50;;;;;;;;;;;;;;;16.42;90.10;95352.50;5096117;28;1069;-49
2022/08/11 03:54:41;;;;;;;;;;;;;;;16.24;91.41;95352.09;5077721;28;1017;-49
2022/08/11 03:57:39;;;;;;;;;;;;;;;16.24;92.82;95361.03;5095758;28;1910;-49
2022/08/11 04:00:13;;;;;;;;;;;;;;;16.37;92.66;95353.09;5095650;28;1742;-49
2022/08/11 04:02:45;;;;;;;;;;;;;;;16.47;93.06;95352.75;5096120;28;1829;-49
2022/08/11 04:05:17;;;;;;;;;;;;;;;16.62;92.42;95352.69;5095772;28;1662;-49
2022/08/11 04:08:04;;;;;;;;;;;;;;;16.47;90.90;95351.94;5095930;28;973;-49
2022/08/11 04:10:36;;;;;;;;;;;;;;;16.34;91.04;95349.94;5054810;28;1304;-49
2022/08/11 04:13:03;;;;;;;;;;;;;;;16.33;92.80;95359.91;5095243;28;1388;-49
2022/08/11 04:16:01;;;;;;;;;;;;;;;16.36;92.59;95358.66;5095740;28;997;-49
2022/08/11 04:18:46;;;;;;;;;;;;;;;16.50;93.07;95354.22;5095451;28;1041;-49
2022/08/11 04:21:30;;;;;;;;;;;;;;;16.67;93.16;95358.31;5095590;28;1056;-49
2022/08/11 04:24:24;;;;;;;;;;;;;;;16.85;92.52;95352.50;5094361;28;1579;-49
2022/08/11 04:26:56;;;;;;;;;;;;;;;16.98;92.51;95363.41;5095624;28;1040;-49
2022/08/11 04:29:25;;;;;;;;;;;;;;;17.13;91.51;95365.16;5095109;28;1041;-49
2022/08/11 04:32:00;;;;;;;;;;;;;;;17.22;91.70;95365.88;5095476;28;988;-49
2022/08/11 04:34:30;;;;;;;;;;;;;;;17.27;91.79;95363.41;5077217;28;1632;-49
2022/08/11 04:39:55;;;;;;;;;;;;;;;17.49;91.41;95365.03;5094993;28;1040;-49
2022/08/11 05:03:57;;;;;;;;;;;;;;;18.67;88.59;95366.72;5094291;28;2773;-48
2022/08/11 05:06:54;;;;;;;;;;;;;;;18.69;88.67;95359.22;5094415;28;1091;-48
2022/08/11 05:09:26;;;;;;;;;;;;;;;18.62;88.33;95356.50;5094327;28;1052;-48
2022/08/11 05:11:52;;;;;;;;;;;;;;;18.90;86.07;95360.94;5094504;28;1057;-50
2022/08/11 05:36:56;;;;;;;;;;;;;;;19.73;82.82;95370.47;5094069;28;1909;-48
2022/08/11 05:56:19;;;;;;;;;;;;;;;20.43;81.74;95351.56;5073383;28;1040;-48
2022/08/11 05:58:50;;;;;;;;;;;;;;;20.54;81.57;95360.94;5073832;28;993;-48
2022/08/11 06:01:24;;;;;;;;;;;;;;;20.57;80.00;95355.06;5073454;28;1504;-48
2022/08/11 06:06:40;;;;;;;;;;;;;;;20.89;79.21;95345.06;5073282;28;1899;-48
2022/08/11 06:09:07;;;;;;;;;;;;;;;21.02;79.69;95347.66;5073845;28;963;-48
2022/08/11 06:11:41;;;;;;;;;;;;;;;21.19;78.64;95361.53;5055897;28;1497;-49
2022/08/11 06:14:11;;;;;;;;;;;;;;;21.23;78.66;95354.59;5088360;28;3307;-48
2022/08/11 06:16:39;;;;;;;;;;;;;;;21.22;78.97;95357.53;5093105;28;2646;-52
2022/08/11 06:19:07;;;;;;;;;;;;;;;21.32;77.81;95357.03;5093104;28;3206;-48
2022/08/11 06:21:35;;;;;;;;;;;;;;;21.36;77.98;95361.81;5075481;28;1511;-48
2022/08/11 06:24:03;;;;;;;;;;;;;;;21.41;78.68;95352.97;5093419;28;1099;-48
2022/08/11 06:26:30;;;;;;;;;;;;;;;21.64;80.10;95355.06;5092749;28;1507;-49
2022/08/11 06:29:00;;;;;;;;;;;;;;;21.89;77.58;95355.00;5093543;28;1695;-51
2022/08/11 06:31:27;;;;;;;;;;;;;;;22.11;76.99;95352.66;5092770;28;3700;-48
2022/08/11 06:33:54;;;;;;;;;;;;;;;22.33;77.91;95358.47;5093491;28;1638;-48
2022/08/11 06:36:33;;;;;;;;;;;;;;;22.42;77.22;95354.38;5075177;28;1910;-48
2022/08/11 06:38:59;;;;;;;;;;;;;;;22.50;75.69;95350.50;5093313;28;1107;-48
2022/08/11 06:41:31;;;;;;;;;;;;;;;22.60;75.51;95352.66;5092953;28;1555;-48
2022/08/11 06:44:09;;;;;;;;;;;;;;;22.84;75.53;95347.28;5084392;28;1541;-48
2022/08/11 06:46:38;;;;;;;;;;;;;;;22.91;73.93;95343.38;5072947;28;992;-48
2022/08/11 06:51:57;;;;;;;;;;;;;;;23.49;73.01;95343.72;5076742;28;1099;-48
2022/08/11 06:54:24;;;;;;;;;;;;;;;23.53;70.13;95345.72;5076713;28;1000;-48
2022/08/11 07:02:32;;;;;;;;;;;;;;;24.20;67.84;95341.75;5076352;28;1827;-48
2022/08/11 07:05:02;;;;;;;;;;;;;;;24.44;66.19;95344.41;5076572;28;1001;-48
2022/08/11 07:54:09;;;;;;;;;;;;;;;25.44;61.91;95339.34;5101510;27;1332;-48
2022/08/11 07:56:36;;;;;;;;;;;;;;;25.48;62.01;95335.88;5095726;28;1902;-48
2022/08/11 08:18:22;;;;;;;;;;;;;;;26.18;62.20;95336.34;5095171;28;1905;-48
2022/08/11 08:20:49;;;;;;;;;;;;;;;26.17;59.61;95322.88;5077498;28;1045;-48
2022/08/11 08:23:16;;;;;;;;;;;;;;;26.41;60.43;95324.28;5095347;28;958;-48
2022/08/11 08:25:43;;;;;;;;;;;;;;;26.51;61.93;95314.50;5095541;28;985;-48
2022/08/11 08:28:12;;;;;;;;;;;;;;;26.62;59.02;95316.31;5095094;28;1168;-48
2022/08/11 08:30:49;;;;;;;;;;;;;;;26.46;58.11;95312.53;5077332;28;982;-48
2022/08/11 08:33:23;;;;;;;;;;;;;;;26.42;59.14;95320.44;5095007;28;1897;-48
2022/08/11 08:36:09;;;;;;;;;;;;;;;26.54;60.30;95312.09;5095184;28;1199;-48
2022/08/11 08:38:40;;;;;;;;;;;;;;;26.73;59.95;95311.72;5095003;28;1060;-48
2022/08/11 08:41:06;;;;;;;;;;;;;;;26.81;57.50;95308.53;5095327;28;926;-48
2022/08/11 08:43:34;;;;;;;;;;;;;;;26.92;57.53;95307.56;5089920;28;1157;-48
2022/08/11 08:46:01;;;;;;;;;;;;;;;27.17;58.24;95303.38;5074788;28;1865;-48
2022/08/11 08:48:28;;;;;;;;;;;;;;;27.35;56.47;95310.38;5074711;28;918;-48
2022/08/11 08:53:48;;;;;;;;;;;;;;;27.61;55.49;95303.97;5074275;28;1236;-48
2022/08/11 08:56:15;;;;;;;;;;;;;;;27.67;55.82;95307.59;5086510;28;1914;-49
2022/08/11 08:58:42;;;;;;;;;;;;;;;27.52;56.45;95293.75;5094790;28;974;-49
2022/08/11 09:01:10;;;;;;;;;;;;;;;27.41;56.11;95290.97;5094836;28;1049;-49
2022/08/11 09:03:37;;;;;;;;;;;;;;;27.51;54.17;95292.09;5094522;28;1116;-49
2022/08/11 09:06:03;;;;;;;;;;;;;;;27.06;52.12;95284.06;5094592;28;1021;-49
2022/08/11 09:08:30;;;;;;;;;;;;;;;26.80;55.90;95293.16;5094308;28;1004;-48
2022/08/11 09:13:43;;;;;;;;;;;;;;;26.32;57.65;95287.44;5076611;28;1520;-48
2022/08/11 09:16:10;;;;;;;;;;;;;;;26.44;56.52;95282.63;5094356;28;1020;-48
2022/08/11 09:18:37;;;;;;;;;;;;;;;26.70;52.62;95271.94;5076319;28;1044;-49
2022/08/11 09:21:04;;;;;;;;;;;;;;;26.91;55.30;95272.97;5094230;28;992;-48
2022/08/11 09:29:00;;;;;;;;;;;;;;;27.75;51.62;95274.13;5094142;28;981;-49
2022/08/11 09:31:32;;;;;;;;;;;;;;;27.89;49.92;95268.16;5076027;28;1021;-49
2022/08/11 09:33:58;;;;;;;;;;;;;;;27.99;50.02;95277.28;5094254;28;1044;-49
2022/08/11 09:41:54;;;;;;;;;;;;;;;28.12;49.01;95264.16;5094012;28;1068;-49
2022/08/11 09:47:07;;;;;;;;;;;;;;;27.78;46.03;95256.28;5114206;28;1056;-49
2022/08/11 09:49:33;;;;;;;;;;;;;;;27.73;46.16;95256.25;5114108;28;977;-49
2022/08/11 09:51:59;;;;;;;;;;;;;;;27.87;49.98;95254.69;5096242;28;962;-48
2022/08/11 09:54:25;;;;;;;;;;;;;;;27.78;49.85;95251.63;5113663;28;1227;-49
2022/08/11 09:59:37;;;;;;;;;;;;;;;27.91;50.08;95249.53;5114085;28;992;-48
2022/08/11 10:02:05;;;;;;;;;;;;;;;27.89;47.42;95243.44;5114030;28;1093;-49
2022/08/11 10:04:39;;;;;;;;;;;;;;;27.90;47.85;95231.38;5113836;28;1092;-49
2022/08/11 10:07:08;;;;;;;;;;;;;;;27.95;49.46;95234.16;5114397;28;981;-49
2022/08/11 10:09:39;;;;;;;;;;;;;;;27.97;49.08;95229.22;5113705;28;1052;-49
2022/08/11 10:12:25;;;;;;;;;;;;;;;28.00;49.90;95221.25;5113977;28;1079;-49
2022/08/11 10:18:40;;;;;;;;;;;;;;;28.01;49.26;95224.81;5113822;28;1918;-48
2022/08/11 10:20:27;;;;;;;;;;;;;;;27.97;47.00;95213.53;5113549;28;1536;-48
2022/08/11 10:28:23;;;;;;;;;;;;;;;27.98;46.20;95209.72;5113960;28;979;-48
2022/08/11 10:36:21;;;;;;;;;;;;;;;28.14;47.16;95218.00;5113318;28;1906;-48
2022/08/11 10:38:51;;;;;;;;;;;;;;;28.08;47.11;95217.16;5095653;28;952;-48
2022/08/11 10:44:04;;;;;;;;;;;;;;;28.36;47.27;95210.34;5104216;28;1157;-49
2022/08/11 10:49:15;;;;;;;;;;;;;;;27.79;46.86;95211.22;5093341;28;973;-49
2022/08/11 10:59:58;;;;;;;;;;;;;;;27.62;47.84;95205.94;5093216;28;957;-48
2022/08/11 11:02:26;;;;;;;;;;;;;;;27.59;47.78;95209.25;5092951;28;1029;-48
2022/08/11 11:05:03;;;;;;;;;;;;;;;27.44;48.78;95212.72;5093112;28;950;-49
2022/08/11 11:07:37;;;;;;;;;;;;;;;27.51;48.29;95201.50;5075203;28;1001;-49
2022/08/11 11:10:05;;;;;;;;;;;;;;;27.87;47.34;95202.50;5092751;28;1040;-49
2022/08/11 11:18:17;;;;;;;;;;;;;;;27.83;48.33;95188.47;5093063;28;1977;-49
2022/08/11 11:20:59;;;;;;;;;;;;;;;27.49;47.57;95190.78;5074979;28;1076;-49
2022/08/11 11:23:25;;;;;;;;;;;;;;;27.34;47.22;95188.78;5092735;28;1092;-49
2022/08/11 11:26:08;;;;;;;;;;;;;;;27.13;46.72;95176.00;5092610;28;1091;-49
2022/08/11 11:28:48;;;;;;;;;;;;;;;27.17;45.94;95177.94;5092872;28;1028;-49
2022/08/11 11:31:26;;;;;;;;;;;;;;;27.44;47.28;95183.34;5092774;28;988;-49
2022/08/11 11:34:16;;;;;;;;;;;;;;;27.55;47.01;95175.16;5094508;28;960;-48
2022/08/11 11:36:45;;;;;;;;;;;;;;;27.69;48.30;95175.50;5096203;28;1994;-48
2022/08/11 11:39:11;;;;;;;;;;;;;;;27.85;46.67;95186.28;5096193;28;973;-49
2022/08/11 11:41:38;;;;;;;;;;;;;;;27.96;46.34;95178.09;5096139;28;1099;-49
2022/08/11 11:44:04;;;;;;;;;;;;;;;28.03;45.04;95181.41;5105596;28;1163;-49
2022/08/11 11:46:31;;;;;;;;;;;;;;;28.06;46.02;95169.88;5116619;28;974;-49
2022/08/11 11:48:59;;;;;;;;;;;;;;;28.19;45.06;95166.63;5116699;28;1235;-49
2022/08/11 11:51:26;;;;;;;;;;;;;;;28.36;44.74;95163.63;5116194;28;1268;-49
2022/08/11 11:53:52;;;;;;;;;;;;;;;28.52;44.87;95158.16;5098074;28;1152;-49
2022/08/11 11:56:21;;;;;;;;;;;;;;;28.57;44.63;95161.75;5116107;28;1905;-49
2022/08/11 12:01:32;;;;;;;;;;;;;;;28.68;45.36;95164.47;5116250;28;1067;-49
2022/08/11 12:03:59;;;;;;;;;;;;;;;28.61;43.25;95157.34;5116222;28;1060;-49
2022/08/11 12:06:26;;;;;;;;;;;;;;;28.45;44.31;95158.38;5098172;28;1048;-49
2022/08/11 12:08:54;;;;;;;;;;;;;;;28.41;43.78;95141.59;5116093;28;1029;-49
2022/08/11 12:14:07;;;;;;;;;;;;;;;28.14;43.54;95147.34;5116073;28;968;-49
2022/08/11 12:16:42;;;;;;;;;;;;;;;27.96;45.57;95148.69;5115721;28;1910;-48
2022/08/11 12:19:10;;;;;;;;;;;;;;;27.76;45.79;95148.63;5115903;28;1017;-49
2022/08/11 12:21:37;;;;;;;;;;;;;;;27.69;47.55;95146.09;5097830;28;1461;-49
2022/08/11 12:29:16;;;;;;;;;;;;;;;28.16;45.00;95142.41;5115593;28;1023;-49
2022/08/11 12:31:43;;;;;;;;;;;;;;;28.41;44.39;95144.34;5115689;28;1127;-49
2022/08/11 12:34:13;;;;;;;;;;;;;;;28.53;43.46;95135.03;5115507;28;1072;-48
2022/08/11 12:36:49;;;;;;;;;;;;;;;28.59;44.03;95137.53;5115461;28;1909;-49
2022/08/11 12:39:18;;;;;;;;;;;;;;;28.70;43.35;95132.03;5115392;28;1869;-49
2022/08/11 12:47:17;;;;;;;;;;;;;;;28.78;43.05;95125.97;5115220;28;1131;-48
2022/08/11 12:52:32;;;;;;;;;;;;;;;28.76;42.64;95126.25;5115059;28;1115;-49
2022/08/11 12:58:16;;;;;;;;;;;;;;;28.91;42.77;95122.66;5114951;28;1912;-49
2022/08/11 13:06:22;;;;;;;;;;;;;;;29.06;41.24;95112.72;5114896;28;1155;-49
2022/08/11 13:08:48;;;;;;;;;;;;;;;29.03;42.66;95108.59;5114793;28;1040;-49
2022/08/11 13:20:31;;;;;;;;;;;;;;;28.85;41.51;95104.50;5114803;28;1188;-49
2022/08/11 13:22:58;;;;;;;;;;;;;;;28.85;42.40;95107.25;5114542;28;914;-49
2022/08/11 13:25:25;;;;;;;;;;;;;;;28.80;42.09;95107.28;5114604;28;1150;-49
2022/08/11 13:27:53;;;;;;;;;;;;;;;28.68;41.85;95109.47;5114210;28;1127;-48
2022/08/11 13:33:08;;;;;;;;;;;;;;;28.47;41.95;95109.44;5114295;28;1048;-48
2022/08/11 13:35:35;;;;;;;;;;;;;;;28.29;42.00;95110.81;5114484;28;1038;-49
2022/08/11 13:38:02;;;;;;;;;;;;;;;28.12;41.97;95105.59;5114152;28;1905;-48
2022/08/11 13:40:29;;;;;;;;;;;;;;;28.01;43.88;95099.25;5114660;28;973;-49
2022/08/11 13:42:57;;;;;;;;;;;;;;;27.92;42.05;95100.06;5114414;28;1231;-48
2022/08/11 13:45:24;;;;;;;;;;;;;;;27.73;43.06;95102.44;5093964;28;1039;-48
2022/08/11 13:47:51;;;;;;;;;;;;;;;27.69;43.63;95109.59;5093771;28;932;-48
2022/08/11 13:50:18;;;;;;;;;;;;;;;27.58;44.81;95100.47;5093878;28;1008;-49
2022/08/11 13:52:45;;;;;;;;;;;;;;;27.49;44.21;95097.44;5093609;28;974;-48
2022/08/11 13:55:20;;;;;;;;;;;;;;;27.46;44.94;95093.28;5093580;28;1187;-48
2022/08/11 13:57:55;;;;;;;;;;;;;;;27.49;45.46;95094.69;5092739;28;1913;-48
2022/08/11 14:00:22;;;;;;;;;;;;;;;27.54;45.32;95091.94;5093789;28;1037;-48
2022/08/11 14:02:49;;;;;;;;;;;;;;;27.58;46.51;95089.50;5093643;28;1049;-48
2022/08/11 14:05:20;;;;;;;;;;;;;;;27.61;45.60;95089.78;5093501;28;1000;-49
2022/08/11 14:07:50;;;;;;;;;;;;;;;27.66;45.63;95091.72;5093788;28;1036;-48
2022/08/11 14:10:21;;;;;;;;;;;;;;;27.66;45.08;95086.25;5093648;28;1034;-48
2022/08/11 14:15:40;;;;;;;;;;;;;;;27.72;46.54;95087.91;5093489;28;1029;-48
2022/08/11 14:18:21;;;;;;;;;;;;;;;27.74;44.32;95087.63;5093438;28;1906;-48
2022/08/11 14:23:39;;;;;;;;;;;;;;;27.88;44.86;95080.50;5093432;28;1021;-48
2022/08/11 14:29:08;;;;;;;;;;;;;;;27.69;43.45;95084.88;5093255;28;1029;-48
2022/08/11 14:31:39;;;;;;;;;;;;;;;27.58;44.55;95084.00;5093465;28;961;-48
2022/08/11 14:34:06;;;;;;;;;;;;;;;27.54;44.38;95085.63;5093103;28;977;-48
2022/08/11 14:36:37;;;;;;;;;;;;;;;27.43;43.59;95088.38;5093254;28;1926;-48
2022/08/11 14:39:05;;;;;;;;;;;;;;;27.46;43.43;95087.00;5093294;28;1026;-48
2022/08/11 14:47:04;;;;;;;;;;;;;;;27.75;43.08;95084.59;5113564;28;1076;-49
2022/08/11 14:49:33;;;;;;;;;;;;;;;27.75;42.72;95087.34;5113342;28;1099;-49
2022/08/11 14:52:00;;;;;;;;;;;;;;;27.75;43.62;95081.84;5113541;28;1041;-49
2022/08/11 14:57:15;;;;;;;;;;;;;;;27.78;44.01;95086.81;5113291;28;1998;-49
2022/08/11 14:59:43;;;;;;;;;;;;;;;27.68;42.94;95080.44;5113191;28;1029;-49
2022/08/11 15:04:55;;;;;;;;;;;;;;;27.60;42.39;95088.16;5113247;28;1028;-49
2022/08/11 15:07:28;;;;;;;;;;;;;;;27.46;43.62;95084.25;5095038;28;977;-50
2022/08/11 15:09:56;;;;;;;;;;;;;;;27.24;43.18;95087.97;5116796;28;981;-49
2022/08/11 15:12:23;;;;;;;;;;;;;;;27.14;43.42;95085.16;5113434;28;1105;-49
2022/08/11 15:17:35;;;;;;;;;;;;;;;26.97;43.79;95090.03;5117163;28;1900;-48
2022/08/11 15:25:35;;;;;;;;;;;;;;;26.94;43.36;95080.41;5116839;28;1447;-48
2022/08/11 15:39:26;;;;;;;;;;;;;;;26.78;43.48;95079.50;5116700;28;1111;-48
2022/08/11 15:47:43;;;;;;;;;;;;;;;26.56;43.99;95082.34;5096180;28;931;-48
2022/08/11 15:50:14;;;;;;;;;;;;;;;26.56;43.68;95082.34;5078038;28;1523;-48
2022/08/11 15:52:47;;;;;;;;;;;;;;;26.57;43.48;95080.44;5096312;28;961;-48
2022/08/11 15:55:13;;;;;;;;;;;;;;;26.45;44.56;95078.69;5095772;28;1116;-48
2022/08/11 16:05:57;;;;;;;;;;;;;;;26.46;44.41;95095.97;5095638;28;1103;-48
2022/08/11 16:08:24;;;;;;;;;;;;;;;26.44;43.80;95093.47;5077752;28;1048;-48
2022/08/11 16:10:52;;;;;;;;;;;;;;;26.43;44.99;95093.75;5095473;28;974;-47
2022/08/11 16:18:40;;;;;;;;;;;;;;;26.42;44.16;95092.09;5095796;28;1977;-48
2022/08/11 16:21:11;;;;;;;;;;;;;;;26.32;44.14;95095.59;5094217;28;1004;-48
2022/08/11 16:23:39;;;;;;;;;;;;;;;26.18;44.27;95089.72;5077478;28;1053;-48
2022/08/11 16:26:06;;;;;;;;;;;;;;;26.19;43.02;95102.31;5095341;28;969;-47
2022/08/11 16:28:33;;;;;;;;;;;;;;;26.23;43.06;95095.22;5095331;28;1096;-48
2022/08/11 16:31:00;;;;;;;;;;;;;;;26.25;43.30;95100.44;5077342;28;988;-48
2022/08/11 16:33:27;;;;;;;;;;;;;;;26.24;44.29;95104.31;5095239;28;1009;-48
2022/08/11 16:38:39;;;;;;;;;;;;;;;26.16;44.76;95100.13;5095401;28;1972;-48
2022/08/11 16:41:07;;;;;;;;;;;;;;;26.04;46.23;95105.75;5095029;28;962;-48
2022/08/11 16:49:23;;;;;;;;;;;;;;;25.61;49.37;95103.91;5115577;28;985;-48
2022/08/11 16:51:50;;;;;;;;;;;;;;;25.41;51.33;95115.47;5115034;28;1101;-48
2022/08/11 16:54:17;;;;;;;;;;;;;;;25.35;51.91;95109.09;5115086;28;1262;-48
2022/08/11 16:56:48;;;;;;;;;;;;;;;25.43;51.95;95113.28;5114914;28;2017;-48
2022/08/11 16:59:34;;;;;;;;;;;;;;;25.32;54.47;95112.31;5097160;28;1539;-48
2022/08/11 17:02:00;;;;;;;;;;;;;;;25.16;53.51;95121.41;5115150;28;1052;-48
2022/08/11 17:16:11;;;;;;;;;;;;;;;24.72;59.29;95138.56;5114697;28;1112;-48
2022/08/11 17:19:12;;;;;;;;;;;;;;;24.65;60.24;95136.00;5114950;28;1918;-48
2022/08/11 17:24:31;;;;;;;;;;;;;;;24.25;61.43;95138.88;5111855;28;1112;-49
2022/08/11 17:26:58;;;;;;;;;;;;;;;24.29;58.15;95142.75;5114659;28;1052;-48
2022/08/11 17:29:27;;;;;;;;;;;;;;;24.26;60.48;95144.06;5114512;28;1028;-48
2022/08/11 17:37:27;;;;;;;;;;;;;;;24.25;57.85;95156.09;5114617;28;1905;-48
2022/08/11 17:39:54;;;;;;;;;;;;;;;24.29;58.46;95154.50;5114546;28;921;-48
2022/08/11 17:50:38;;;;;;;;;;;;;;;24.84;52.77;95152.13;5114326;28;1007;-48
2022/08/11 18:01:22;;;;;;;;;;;;;;;25.07;50.02;95157.38;5113919;28;1040;-48
2022/08/11 18:03:49;;;;;;;;;;;;;;;25.06;50.38;95160.38;5114050;28;966;-48
2022/08/11 18:06:17;;;;;;;;;;;;;;;25.03;51.17;95172.66;5114055;28;1025;-48
